EGQL/ADX METAR and TAF weather

Enter ICAO airport designator
Station Type Date Time Source
EGQL METAR 2021/09/16 21:50 UTC NOAA

EGQL 162150Z 23002KT 9999 BKN021 15/12 Q1012 RMK WHT


Station Type Date Time Source
EGQL Decoded METAR 2021/09/16 21:50 UTC NOAA

Leuchars, United Kingdom (EGQL) 56-23N 002-52W 0M
Sep 16, 2021 - 05:50 PM EDT / 2021.09.16 2150 UTC
Wind: from the SW (230 degrees) at 2 MPH (2 KT):0
Visibility: greater than 7 mile(s):0
Sky conditions: mostly cloudy
Temperature: 59 F (15 C)
Dew Point: 53 F (12 C)
Relative Humidity: 82%
Pressure (altimeter): 29.88 in. Hg (1012 hPa)
ob: EGQL 162150Z 23002KT 9999 BKN021 15/12 Q1012 RMK WHT
cycle: 22

Station Type Date Time Source
EGQL TAF 2011/07/27 06:03 UTC NOAA

TAF TAF
AMD EGQL 270424Z 2706/2724 14005KT 9999 BKN020 PROB30
TEMPO 2706/2708 SCT012
BECMG 2708/2710 SCT025

Example: see airport list